createdAt,value
2022-07-30T00:08:14.771Z,6.30
2022-07-30T00:18:17.531Z,6.05
2022-07-30T00:28:20.266Z,7.55
2022-07-30T00:38:23.254Z,5.63
2022-07-30T00:48:26.211Z,6.35
2022-07-30T00:58:29.068Z,5.78
2022-07-30T01:08:31.766Z,4.43
2022-07-30T01:18:53.907Z,6.03
2022-07-30T01:28:57.066Z,7.78
2022-07-30T01:39:01.360Z,5.25
2022-07-30T01:49:04.850Z,5.30
2022-07-30T01:59:10.574Z,5.40
2022-07-30T02:09:16.349Z,4.57
2022-07-30T02:19:21.010Z,5.00
2022-07-30T02:29:24.719Z,5.68
2022-07-30T02:39:28.959Z,3.80
2022-07-30T02:49:35.883Z,6.50
2022-07-30T02:59:41.581Z,4.18
2022-07-30T03:09:52.282Z,4.85
2022-07-30T03:19:56.614Z,4.90
2022-07-30T03:30:02.842Z,10.20
2022-07-30T03:40:07.479Z,6.20
2022-07-30T03:50:10.704Z,7.15
2022-07-30T04:00:15.557Z,7.22
2022-07-30T04:10:18.427Z,7.97
2022-07-30T04:20:26.512Z,8.70
2022-07-30T04:30:29.367Z,7.80
2022-07-30T04:40:32.261Z,6.55
2022-07-30T04:50:38.929Z,9.35
2022-07-30T05:00:42.909Z,9.48
2022-07-30T05:10:46.214Z,9.85
2022-07-30T05:20:49.028Z,9.43
2022-07-30T05:30:53.810Z,9.75
2022-07-30T05:40:57.196Z,12.57
2022-07-30T05:50:59.953Z,9.02
2022-07-30T06:01:02.702Z,10.10
2022-07-30T06:11:05.619Z,9.25
2022-07-30T06:21:08.558Z,10.25
2022-07-30T06:31:11.384Z,9.50
2022-07-30T06:41:16.080Z,13.52
2022-07-30T06:51:20.110Z,5.32
2022-07-30T07:01:23.907Z,7.07
2022-07-30T07:11:26.959Z,10.20
2022-07-30T07:21:29.754Z,7.53
2022-07-30T07:32:06.081Z,8.68
2022-07-30T07:41:55.636Z,10.77
2022-07-30T07:51:58.572Z,8.07
2022-07-30T08:02:03.339Z,7.65
2022-07-30T08:12:07.029Z,6.60
2022-07-30T08:22:10.459Z,7.03
2022-07-30T08:32:13.302Z,12.63
2022-07-30T08:42:17.237Z,9.27
2022-07-30T08:52:20.617Z,12.15
2022-07-30T16:25:16.351Z,0.90
2022-07-30T16:35:19.901Z,1.60
2022-07-30T16:45:23.112Z,1.50
2022-07-30T16:55:28.960Z,0.88
2022-07-30T17:05:35.325Z,4.70
2022-07-30T17:15:46.969Z,1.83
2022-07-30T17:25:50.206Z,1.58
2022-07-30T17:35:53.298Z,2.15
2022-07-30T17:45:56.223Z,2.83
2022-07-30T17:56:02.726Z,8.88
2022-07-30T18:06:07.201Z,6.07
2022-07-30T18:16:11.773Z,4.30
2022-07-30T18:26:14.797Z,3.97
2022-07-30T18:36:17.775Z,4.28
2022-07-30T18:46:20.742Z,3.65
2022-07-30T18:56:23.999Z,2.75
2022-07-30T19:06:26.947Z,3.95
2022-07-30T19:16:30.053Z,4.07
2022-07-30T19:26:33.221Z,5.07
2022-07-30T19:36:36.127Z,4.22
2022-07-30T19:46:42.227Z,3.10
2022-07-30T19:56:52.789Z,4.82
